Atlantic Beach, North Carolina
Current Conditions -  °F | °C
As of 1:58 PM on Friday 31 Oct 2014 (Local Time) from KMRH Reporting Station
Overcast Overcast  
Wind Chill: 63°   Ceiling: 4700
Heat Index: 63°   Visibility: 10mi
Dew Point: 50°   Wind: 12mph
Humidity: 63%   Direction: 360°N
Pressure: 29.8"   Gusts: NA
Location:  34.7°N, 76.74°W
Report Text: KMRH 311758Z AUTO 36010KT 10SM BKN047 OVC060 17/10 A2980 RMK AO2 SLP092 T01720100 10183 20144 56021 TSNO
Loading
Personal Weather Stations






























Interactive Weather Map
Tropical Storm Tracking
New forecast layout! Learn more

10-Day Weather Forecast

Advertisements
Track Severe Weather on mobile